sensor_id;sensor_type;location;lat;lon;timestamp;P1;durP1;ratioP1;P2;durP2;ratioP2
17947;SDS011;9099;47.958;11.366;2023-05-10T00:01:43;0.45;;;0.45;;
17947;SDS011;9099;47.958;11.366;2023-05-10T00:04:09;0.47;;;0.47;;
17947;SDS011;9099;47.958;11.366;2023-05-10T00:06:36;0.55;;;0.55;;
17947;SDS011;9099;47.958;11.366;2023-05-10T00:09:03;1.23;;;0.70;;
17947;SDS011;9099;47.958;11.366;2023-05-10T00:11:31;0.50;;;0.50;;
17947;SDS011;9099;47.958;11.366;2023-05-10T00:13:58;0.63;;;0.60;;
17947;SDS011;9099;47.958;11.366;2023-05-10T00:16:25;0.55;;;0.55;;
17947;SDS011;9099;47.958;11.366;2023-05-10T00:18:52;0.60;;;0.55;;
17947;SDS011;9099;47.958;11.366;2023-05-10T00:21:19;0.77;;;0.77;;
17947;SDS011;9099;47.958;11.366;2023-05-10T00:23:46;0.65;;;0.60;;
17947;SDS011;9099;47.958;11.366;2023-05-10T00:26:12;0.57;;;0.57;;
17947;SDS011;9099;47.958;11.366;2023-05-10T00:28:41;0.50;;;0.50;;
17947;SDS011;9099;47.958;11.366;2023-05-10T00:31:08;0.88;;;0.80;;
17947;SDS011;9099;47.958;11.366;2023-05-10T00:33:35;0.50;;;0.50;;
17947;SDS011;9099;47.958;11.366;2023-05-10T00:36:01;0.52;;;0.40;;
17947;SDS011;9099;47.958;11.366;2023-05-10T00:38:28;0.50;;;0.50;;
17947;SDS011;9099;47.958;11.366;2023-05-10T00:40:56;0.52;;;0.52;;
17947;SDS011;9099;47.958;11.366;2023-05-10T00:43:22;0.38;;;0.35;;
17947;SDS011;9099;47.958;11.366;2023-05-10T00:45:51;1.38;;;0.60;;
17947;SDS011;9099;47.958;11.366;2023-05-10T00:48:18;1.02;;;0.60;;
17947;SDS011;9099;47.958;11.366;2023-05-10T00:50:45;0.30;;;0.30;;
17947;SDS011;9099;47.958;11.366;2023-05-10T00:53:12;0.77;;;0.40;;
17947;SDS011;9099;47.958;11.366;2023-05-10T00:55:41;0.50;;;0.50;;
17947;SDS011;9099;47.958;11.366;2023-05-10T00:58:07;0.60;;;0.60;;
17947;SDS011;9099;47.958;11.366;2023-05-10T01:00:34;0.45;;;0.30;;
17947;SDS011;9099;47.958;11.366;2023-05-10T01:03:04;0.35;;;0.30;;
17947;SDS011;9099;47.958;11.366;2023-05-10T01:05:30;0.30;;;0.30;;
17947;SDS011;9099;47.958;11.366;2023-05-10T01:07:57;0.32;;;0.32;;
17947;SDS011;9099;47.958;11.366;2023-05-10T01:10:24;0.82;;;0.22;;
17947;SDS011;9099;47.958;11.366;2023-05-10T01:12:51;0.35;;;0.35;;
17947;SDS011;9099;47.958;11.366;2023-05-10T01:15:18;0.30;;;0.30;;
17947;SDS011;9099;47.958;11.366;2023-05-10T01:17:47;0.40;;;0.40;;
17947;SDS011;9099;47.958;11.366;2023-05-10T01:20:16;0.40;;;0.40;;
17947;SDS011;9099;47.958;11.366;2023-05-10T01:22:50;0.60;;;0.45;;
17947;SDS011;9099;47.958;11.366;2023-05-10T01:25:42;0.30;;;0.30;;
17947;SDS011;9099;47.958;11.366;2023-05-10T01:28:37;0.40;;;0.40;;
17947;SDS011;9099;47.958;11.366;2023-05-10T01:34:11;0.43;;;0.40;;
17947;SDS011;9099;47.958;11.366;2023-05-10T01:36:43;0.30;;;0.30;;
17947;SDS011;9099;47.958;11.366;2023-05-10T01:39:15;0.30;;;0.30;;
17947;SDS011;9099;47.958;11.366;2023-05-10T01:41:48;0.50;;;0.40;;
17947;SDS011;9099;47.958;11.366;2023-05-10T01:44:20;0.35;;;0.22;;
17947;SDS011;9099;47.958;11.366;2023-05-10T01:46:57;0.28;;;0.28;;
17947;SDS011;9099;47.958;11.366;2023-05-10T01:49:32;0.30;;;0.30;;
17947;SDS011;9099;47.958;11.366;2023-05-10T01:52:06;0.30;;;0.30;;
17947;SDS011;9099;47.958;11.366;2023-05-10T01:54:38;0.52;;;0.30;;
17947;SDS011;9099;47.958;11.366;2023-05-10T01:57:09;0.82;;;0.20;;
17947;SDS011;9099;47.958;11.366;2023-05-10T01:59:37;0.30;;;0.30;;
17947;SDS011;9099;47.958;11.366;2023-05-10T02:02:06;0.40;;;0.30;;
17947;SDS011;9099;47.958;11.366;2023-05-10T02:04:38;0.45;;;0.30;;
17947;SDS011;9099;47.958;11.366;2023-05-10T02:07:06;0.30;;;0.30;;
17947;SDS011;9099;47.958;11.366;2023-05-10T02:09:35;0.28;;;0.28;;
17947;SDS011;9099;47.958;11.366;2023-05-10T02:12:03;0.15;;;0.15;;
17947;SDS011;9099;47.958;11.366;2023-05-10T02:14:34;0.20;;;0.20;;
17947;SDS011;9099;47.958;11.366;2023-05-10T02:17:02;0.25;;;0.25;;
17947;SDS011;9099;47.958;11.366;2023-05-10T02:19:31;0.30;;;0.30;;
17947;SDS011;9099;47.958;11.366;2023-05-10T02:22:00;0.30;;;0.30;;
17947;SDS011;9099;47.958;11.366;2023-05-10T02:24:27;0.82;;;0.28;;
17947;SDS011;9099;47.958;11.366;2023-05-10T02:26:55;0.90;;;0.40;;
17947;SDS011;9099;47.958;11.366;2023-05-10T02:29:23;0.30;;;0.30;;
17947;SDS011;9099;47.958;11.366;2023-05-10T02:31:53;0.20;;;0.20;;
17947;SDS011;9099;47.958;11.366;2023-05-10T02:34:22;0.20;;;0.20;;
17947;SDS011;9099;47.958;11.366;2023-05-10T02:36:50;0.22;;;0.22;;
17947;SDS011;9099;47.958;11.366;2023-05-10T02:39:19;0.20;;;0.20;;
17947;SDS011;9099;47.958;11.366;2023-05-10T02:41:48;0.30;;;0.20;;
17947;SDS011;9099;47.958;11.366;2023-05-10T02:44:17;0.68;;;0.20;;
17947;SDS011;9099;47.958;11.366;2023-05-10T02:46:45;0.17;;;0.17;;
17947;SDS011;9099;47.958;11.366;2023-05-10T02:49:13;0.40;;;0.15;;
17947;SDS011;9099;47.958;11.366;2023-05-10T02:51:41;0.30;;;0.30;;
17947;SDS011;9099;47.958;11.366;2023-05-10T02:54:20;0.55;;;0.30;;
17947;SDS011;9099;47.958;11.366;2023-05-10T02:56:56;0.25;;;0.20;;
17947;SDS011;9099;47.958;11.366;2023-05-10T02:59:25;0.80;;;0.20;;
17947;SDS011;9099;47.958;11.366;2023-05-10T03:01:52;0.20;;;0.17;;
17947;SDS011;9099;47.958;11.366;2023-05-10T03:04:19;0.43;;;0.20;;
17947;SDS011;9099;47.958;11.366;2023-05-10T03:06:46;0.10;;;0.10;;
17947;SDS011;9099;47.958;11.366;2023-05-10T03:09:13;0.10;;;0.10;;
17947;SDS011;9099;47.958;11.366;2023-05-10T03:11:46;0.35;;;0.20;;
17947;SDS011;9099;47.958;11.366;2023-05-10T03:14:21;0.10;;;0.10;;
17947;SDS011;9099;47.958;11.366;2023-05-10T03:16:57;0.43;;;0.10;;
17947;SDS011;9099;47.958;11.366;2023-05-10T03:19:32;0.00;;;0.00;;
17947;SDS011;9099;47.958;11.366;2023-05-10T03:22:07;0.15;;;0.15;;
17947;SDS011;9099;47.958;11.366;2023-05-10T03:24:36;0.15;;;0.10;;
17947;SDS011;9099;47.958;11.366;2023-05-10T03:27:08;2.10;;;0.40;;
17947;SDS011;9099;47.958;11.366;2023-05-10T03:29:36;0.20;;;0.20;;
17947;SDS011;9099;47.958;11.366;2023-05-10T03:32:05;0.20;;;0.20;;
17947;SDS011;9099;47.958;11.366;2023-05-10T03:34:32;0.10;;;0.08;;
17947;SDS011;9099;47.958;11.366;2023-05-10T03:36:58;0.20;;;0.20;;
17947;SDS011;9099;47.958;11.366;2023-05-10T03:39:25;0.10;;;0.10;;
17947;SDS011;9099;47.958;11.366;2023-05-10T03:41:52;0.20;;;0.20;;
17947;SDS011;9099;47.958;11.366;2023-05-10T03:44:20;0.20;;;0.20;;
17947;SDS011;9099;47.958;11.366;2023-05-10T03:46:47;0.65;;;0.22;;
17947;SDS011;9099;47.958;11.366;2023-05-10T03:49:14;0.55;;;0.20;;
17947;SDS011;9099;47.958;11.366;2023-05-10T03:51:41;0.10;;;0.10;;
17947;SDS011;9099;47.958;11.366;2023-05-10T03:54:08;0.10;;;0.10;;
17947;SDS011;9099;47.958;11.366;2023-05-10T03:56:34;0.20;;;0.10;;
17947;SDS011;9099;47.958;11.366;2023-05-10T03:59:01;0.08;;;0.05;;
17947;SDS011;9099;47.958;11.366;2023-05-10T04:01:33;0.00;;;0.00;;
17947;SDS011;9099;47.958;11.366;2023-05-10T04:04:00;0.10;;;0.10;;
17947;SDS011;9099;47.958;11.366;2023-05-10T04:06:27;0.15;;;0.15;;
17947;SDS011;9099;47.958;11.366;2023-05-10T04:08:54;0.73;;;0.30;;
17947;SDS011;9099;47.958;11.366;2023-05-10T04:11:21;0.40;;;0.40;;
17947;SDS011;9099;47.958;11.366;2023-05-10T04:13:49;0.10;;;0.10;;
17947;SDS011;9099;47.958;11.366;2023-05-10T04:16:16;0.00;;;0.00;;
17947;SDS011;9099;47.958;11.366;2023-05-10T04:18:44;0.10;;;0.10;;
17947;SDS011;9099;47.958;11.366;2023-05-10T04:21:11;0.10;;;0.10;;
17947;SDS011;9099;47.958;11.366;2023-05-10T04:23:38;0.00;;;0.00;;
17947;SDS011;9099;47.958;11.366;2023-05-10T04:26:06;0.10;;;0.10;;
17947;SDS011;9099;47.958;11.366;2023-05-10T04:28:32;0.10;;;0.10;;
17947;SDS011;9099;47.958;11.366;2023-05-10T04:33:59;0.05;;;0.05;;
17947;SDS011;9099;47.958;11.366;2023-05-10T04:36:25;0.22;;;0.10;;
17947;SDS011;9099;47.958;11.366;2023-05-10T04:38:52;0.08;;;0.08;;
17947;SDS011;9099;47.958;11.366;2023-05-10T04:41:19;0.00;;;0.00;;
17947;SDS011;9099;47.958;11.366;2023-05-10T04:43:46;0.10;;;0.10;;
17947;SDS011;9099;47.958;11.366;2023-05-10T04:46:14;0.10;;;0.10;;
17947;SDS011;9099;47.958;11.366;2023-05-10T04:48:41;0.22;;;0.22;;
17947;SDS011;9099;47.958;11.366;2023-05-10T04:51:09;0.28;;;0.10;;
17947;SDS011;9099;47.958;11.366;2023-05-10T04:53:37;0.10;;;0.05;;
17947;SDS011;9099;47.958;11.366;2023-05-10T04:56:04;0.13;;;0.10;;
17947;SDS011;9099;47.958;11.366;2023-05-10T04:58:31;0.10;;;0.10;;
17947;SDS011;9099;47.958;11.366;2023-05-10T05:01:04;0.10;;;0.10;;
17947;SDS011;9099;47.958;11.366;2023-05-10T05:03:33;1.30;;;0.28;;
17947;SDS011;9099;47.958;11.366;2023-05-10T05:06:00;0.10;;;0.10;;
17947;SDS011;9099;47.958;11.366;2023-05-10T05:08:28;0.30;;;0.30;;
17947;SDS011;9099;47.958;11.366;2023-05-10T05:10:55;0.55;;;0.20;;
17947;SDS011;9099;47.958;11.366;2023-05-10T05:13:22;0.30;;;0.30;;
17947;SDS011;9099;47.958;11.366;2023-05-10T05:15:49;0.20;;;0.20;;
17947;SDS011;9099;47.958;11.366;2023-05-10T05:18:16;0.20;;;0.20;;
17947;SDS011;9099;47.958;11.366;2023-05-10T05:20:42;0.43;;;0.35;;
17947;SDS011;9099;47.958;11.366;2023-05-10T05:23:09;0.43;;;0.20;;
17947;SDS011;9099;47.958;11.366;2023-05-10T05:25:37;0.73;;;0.40;;
17947;SDS011;9099;47.958;11.366;2023-05-10T05:28:04;0.50;;;0.30;;
17947;SDS011;9099;47.958;11.366;2023-05-10T05:30:31;0.40;;;0.30;;
17947;SDS011;9099;47.958;11.366;2023-05-10T05:32:58;0.35;;;0.30;;
17947;SDS011;9099;47.958;11.366;2023-05-10T05:35:25;1.50;;;0.17;;
17947;SDS011;9099;47.958;11.366;2023-05-10T05:37:51;0.40;;;0.30;;
17947;SDS011;9099;47.958;11.366;2023-05-10T05:40:18;0.35;;;0.20;;
17947;SDS011;9099;47.958;11.366;2023-05-10T05:42:47;0.20;;;0.20;;
17947;SDS011;9099;47.958;11.366;2023-05-10T05:45:14;0.20;;;0.20;;
17947;SDS011;9099;47.958;11.366;2023-05-10T05:47:41;0.20;;;0.20;;
17947;SDS011;9099;47.958;11.366;2023-05-10T05:50:08;0.40;;;0.20;;
17947;SDS011;9099;47.958;11.366;2023-05-10T05:52:35;0.20;;;0.20;;
17947;SDS011;9099;47.958;11.366;2023-05-10T05:55:02;0.20;;;0.20;;
17947;SDS011;9099;47.958;11.366;2023-05-10T05:57:30;2.72;;;0.50;;
17947;SDS011;9099;47.958;11.366;2023-05-10T05:59:58;0.45;;;0.30;;
17947;SDS011;9099;47.958;11.366;2023-05-10T06:02:25;0.30;;;0.28;;
17947;SDS011;9099;47.958;11.366;2023-05-10T06:04:52;0.55;;;0.30;;
17947;SDS011;9099;47.958;11.366;2023-05-10T06:07:19;0.22;;;0.22;;
17947;SDS011;9099;47.958;11.366;2023-05-10T06:09:46;0.30;;;0.28;;
17947;SDS011;9099;47.958;11.366;2023-05-10T06:12:12;1.08;;;0.30;;
17947;SDS011;9099;47.958;11.366;2023-05-10T06:14:39;0.22;;;0.22;;
17947;SDS011;9099;47.958;11.366;2023-05-10T06:17:07;0.30;;;0.30;;
17947;SDS011;9099;47.958;11.366;2023-05-10T06:19:34;0.63;;;0.50;;
17947;SDS011;9099;47.958;11.366;2023-05-10T06:22:01;0.68;;;0.30;;
17947;SDS011;9099;47.958;11.366;2023-05-10T06:24:28;0.45;;;0.20;;
17947;SDS011;9099;47.958;11.366;2023-05-10T06:26:55;0.40;;;0.40;;
17947;SDS011;9099;47.958;11.366;2023-05-10T06:29:25;0.30;;;0.30;;
17947;SDS011;9099;47.958;11.366;2023-05-10T06:31:52;0.40;;;0.40;;
17947;SDS011;9099;47.958;11.366;2023-05-10T06:34:20;1.20;;;0.60;;
17947;SDS011;9099;47.958;11.366;2023-05-10T06:36:47;0.50;;;0.50;;
17947;SDS011;9099;47.958;11.366;2023-05-10T06:39:14;0.40;;;0.40;;
17947;SDS011;9099;47.958;11.366;2023-05-10T06:41:41;0.40;;;0.40;;
17947;SDS011;9099;47.958;11.366;2023-05-10T06:44:08;0.50;;;0.50;;
17947;SDS011;9099;47.958;11.366;2023-05-10T06:46:35;0.40;;;0.40;;
17947;SDS011;9099;47.958;11.366;2023-05-10T06:49:02;1.10;;;0.40;;
17947;SDS011;9099;47.958;11.366;2023-05-10T06:51:31;0.30;;;0.30;;
17947;SDS011;9099;47.958;11.366;2023-05-10T06:53:57;0.65;;;0.65;;
17947;SDS011;9099;47.958;11.366;2023-05-10T06:56:25;0.38;;;0.38;;
17947;SDS011;9099;47.958;11.366;2023-05-10T06:58:52;0.65;;;0.57;;
17947;SDS011;9099;47.958;11.366;2023-05-10T07:01:18;0.40;;;0.40;;
17947;SDS011;9099;47.958;11.366;2023-05-10T07:03:46;0.40;;;0.40;;
17947;SDS011;9099;47.958;11.366;2023-05-10T07:06:12;0.47;;;0.47;;
17947;SDS011;9099;47.958;11.366;2023-05-10T07:08:40;0.85;;;0.50;;
17947;SDS011;9099;47.958;11.366;2023-05-10T07:11:07;0.65;;;0.63;;
17947;SDS011;9099;47.958;11.366;2023-05-10T07:13:35;0.80;;;0.50;;
17947;SDS011;9099;47.958;11.366;2023-05-10T07:16:04;0.40;;;0.40;;
17947;SDS011;9099;47.958;11.366;2023-05-10T07:18:31;1.20;;;0.50;;
17947;SDS011;9099;47.958;11.366;2023-05-10T07:20:58;0.50;;;0.50;;
17947;SDS011;9099;47.958;11.366;2023-05-10T07:23:25;0.50;;;0.50;;
17947;SDS011;9099;47.958;11.366;2023-05-10T07:25:53;0.63;;;0.63;;
17947;SDS011;9099;47.958;11.366;2023-05-10T07:28:21;0.40;;;0.40;;
17947;SDS011;9099;47.958;11.366;2023-05-10T07:30:49;1.60;;;0.40;;
17947;SDS011;9099;47.958;11.366;2023-05-10T07:33:16;1.45;;;0.50;;
17947;SDS011;9099;47.958;11.366;2023-05-10T07:35:43;0.77;;;0.32;;
17947;SDS011;9099;47.958;11.366;2023-05-10T07:38:10;0.40;;;0.40;;
17947;SDS011;9099;47.958;11.366;2023-05-10T07:40:37;0.50;;;0.50;;
17947;SDS011;9099;47.958;11.366;2023-05-10T07:43:06;0.50;;;0.40;;
17947;SDS011;9099;47.958;11.366;2023-05-10T07:45:33;0.68;;;0.38;;
17947;SDS011;9099;47.958;11.366;2023-05-10T07:48:00;3.22;;;1.90;;
17947;SDS011;9099;47.958;11.366;2023-05-10T07:50:27;0.40;;;0.40;;
17947;SDS011;9099;47.958;11.366;2023-05-10T07:52:54;1.92;;;1.20;;
17947;SDS011;9099;47.958;11.366;2023-05-10T07:55:21;0.40;;;0.40;;
17947;SDS011;9099;47.958;11.366;2023-05-10T07:57:48;0.75;;;0.43;;
17947;SDS011;9099;47.958;11.366;2023-05-10T08:00:18;0.50;;;0.38;;
17947;SDS011;9099;47.958;11.366;2023-05-10T08:02:45;0.70;;;0.45;;
17947;SDS011;9099;47.958;11.366;2023-05-10T08:05:13;1.02;;;0.40;;
17947;SDS011;9099;47.958;11.366;2023-05-10T08:07:40;0.90;;;0.50;;
17947;SDS011;9099;47.958;11.366;2023-05-10T08:10:08;0.40;;;0.40;;
17947;SDS011;9099;47.958;11.366;2023-05-10T08:12:36;0.88;;;0.50;;
17947;SDS011;9099;47.958;11.366;2023-05-10T08:15:03;1.08;;;0.60;;
17947;SDS011;9099;47.958;11.366;2023-05-10T08:17:33;0.43;;;0.40;;
17947;SDS011;9099;47.958;11.366;2023-05-10T08:20:00;0.80;;;0.47;;
17947;SDS011;9099;47.958;11.366;2023-05-10T08:22:26;0.60;;;0.60;;
17947;SDS011;9099;47.958;11.366;2023-05-10T08:24:53;0.80;;;0.80;;
17947;SDS011;9099;47.958;11.366;2023-05-10T08:27:20;1.33;;;0.73;;
17947;SDS011;9099;47.958;11.366;2023-05-10T08:29:47;0.70;;;0.40;;
17947;SDS011;9099;47.958;11.366;2023-05-10T08:32:14;0.52;;;0.40;;
17947;SDS011;9099;47.958;11.366;2023-05-10T08:34:42;1.08;;;0.98;;
17947;SDS011;9099;47.958;11.366;2023-05-10T08:37:09;0.60;;;0.60;;
17947;SDS011;9099;47.958;11.366;2023-05-10T08:39:38;0.60;;;0.60;;
17947;SDS011;9099;47.958;11.366;2023-05-10T08:42:05;0.60;;;0.60;;
17947;SDS011;9099;47.958;11.366;2023-05-10T08:44:34;0.50;;;0.50;;
17947;SDS011;9099;47.958;11.366;2023-05-10T08:47:02;0.75;;;0.73;;
17947;SDS011;9099;47.958;11.366;2023-05-10T08:49:31;0.98;;;0.98;;
17947;SDS011;9099;47.958;11.366;2023-05-10T08:52:03;0.75;;;0.68;;
17947;SDS011;9099;47.958;11.366;2023-05-10T08:54:32;0.65;;;0.65;;
17947;SDS011;9099;47.958;11.366;2023-05-10T08:56:59;0.50;;;0.50;;
17947;SDS011;9099;47.958;11.366;2023-05-10T08:59:26;0.30;;;0.30;;
17947;SDS011;9099;47.958;11.366;2023-05-10T09:01:53;0.50;;;0.50;;
17947;SDS011;9099;47.958;11.366;2023-05-10T09:04:23;0.47;;;0.40;;
17947;SDS011;9099;47.958;11.366;2023-05-10T09:06:50;0.43;;;0.43;;
17947;SDS011;9099;47.958;11.366;2023-05-10T09:09:19;0.30;;;0.30;;
17947;SDS011;9099;47.958;11.366;2023-05-10T09:11:46;0.38;;;0.38;;
17947;SDS011;9099;47.958;11.366;2023-05-10T09:14:14;0.35;;;0.30;;
17947;SDS011;9099;47.958;11.366;2023-05-10T09:16:42;0.50;;;0.50;;
17947;SDS011;9099;47.958;11.366;2023-05-10T09:19:09;0.82;;;0.40;;
17947;SDS011;9099;47.958;11.366;2023-05-10T09:21:36;0.22;;;0.22;;
17947;SDS011;9099;47.958;11.366;2023-05-10T09:24:04;0.40;;;0.40;;
17947;SDS011;9099;47.958;11.366;2023-05-10T09:26:33;1.20;;;0.47;;
17947;SDS011;9099;47.958;11.366;2023-05-10T09:29:02;0.90;;;0.65;;
17947;SDS011;9099;47.958;11.366;2023-05-10T09:31:45;0.50;;;0.50;;
17947;SDS011;9099;47.958;11.366;2023-05-10T09:34:15;0.60;;;0.60;;
17947;SDS011;9099;47.958;11.366;2023-05-10T09:36:50;1.55;;;0.45;;
17947;SDS011;9099;47.958;11.366;2023-05-10T09:39:18;0.40;;;0.30;;
17947;SDS011;9099;47.958;11.366;2023-05-10T09:41:47;0.52;;;0.38;;
17947;SDS011;9099;47.958;11.366;2023-05-10T09:44:16;0.68;;;0.40;;
17947;SDS011;9099;47.958;11.366;2023-05-10T09:46:48;0.35;;;0.35;;
17947;SDS011;9099;47.958;11.366;2023-05-10T09:49:17;0.50;;;0.47;;
17947;SDS011;9099;47.958;11.366;2023-05-10T09:51:44;0.50;;;0.50;;
17947;SDS011;9099;47.958;11.366;2023-05-10T09:54:12;0.60;;;0.60;;
17947;SDS011;9099;47.958;11.366;2023-05-10T09:56:39;0.65;;;0.65;;
17947;SDS011;9099;47.958;11.366;2023-05-10T09:59:08;1.27;;;0.60;;
17947;SDS011;9099;47.958;11.366;2023-05-10T10:01:36;0.98;;;0.70;;
17947;SDS011;9099;47.958;11.366;2023-05-10T10:04:03;0.63;;;0.63;;
17947;SDS011;9099;47.958;11.366;2023-05-10T10:06:34;0.52;;;0.52;;
17947;SDS011;9099;47.958;11.366;2023-05-10T10:09:02;0.75;;;0.75;;
17947;SDS011;9099;47.958;11.366;2023-05-10T10:11:30;1.17;;;0.63;;
17947;SDS011;9099;47.958;11.366;2023-05-10T10:13:57;0.60;;;0.60;;
17947;SDS011;9099;47.958;11.366;2023-05-10T10:16:26;1.17;;;0.75;;
17947;SDS011;9099;47.958;11.366;2023-05-10T10:18:54;0.88;;;0.82;;
17947;SDS011;9099;47.958;11.366;2023-05-10T10:21:21;1.15;;;0.50;;
17947;SDS011;9099;47.958;11.366;2023-05-10T10:23:49;1.27;;;0.70;;
17947;SDS011;9099;47.958;11.366;2023-05-10T10:26:16;0.77;;;0.50;;
17947;SDS011;9099;47.958;11.366;2023-05-10T10:28:46;1.00;;;0.50;;
17947;SDS011;9099;47.958;11.366;2023-05-10T10:31:21;0.40;;;0.30;;
17947;SDS011;9099;47.958;11.366;2023-05-10T10:34:01;0.70;;;0.60;;
17947;SDS011;9099;47.958;11.366;2023-05-10T10:36:32;1.00;;;0.40;;
17947;SDS011;9099;47.958;11.366;2023-05-10T10:39:08;0.50;;;0.40;;
17947;SDS011;9099;47.958;11.366;2023-05-10T10:41:37;0.85;;;0.68;;
17947;SDS011;9099;47.958;11.366;2023-05-10T10:44:25;1.27;;;0.70;;
17947;SDS011;9099;47.958;11.366;2023-05-10T10:47:05;0.40;;;0.35;;
17947;SDS011;9099;47.958;11.366;2023-05-10T10:49:43;1.10;;;0.30;;
17947;SDS011;9099;47.958;11.366;2023-05-10T10:52:15;0.80;;;0.30;;
17947;SDS011;9099;47.958;11.366;2023-05-10T10:54:49;1.27;;;0.38;;
17947;SDS011;9099;47.958;11.366;2023-05-10T10:57:18;0.47;;;0.40;;
17947;SDS011;9099;47.958;11.366;2023-05-10T10:59:46;0.60;;;0.50;;
17947;SDS011;9099;47.958;11.366;2023-05-10T11:02:34;1.48;;;0.60;;
17947;SDS011;9099;47.958;11.366;2023-05-10T11:05:23;2.03;;;0.60;;
17947;SDS011;9099;47.958;11.366;2023-05-10T11:07:51;1.38;;;0.63;;
17947;SDS011;9099;47.958;11.366;2023-05-10T11:13:42;0.57;;;0.50;;
17947;SDS011;9099;47.958;11.366;2023-05-10T11:16:13;0.25;;;0.22;;
17947;SDS011;9099;47.958;11.366;2023-05-10T11:18:53;1.30;;;0.43;;
17947;SDS011;9099;47.958;11.366;2023-05-10T11:21:22;0.40;;;0.40;;
17947;SDS011;9099;47.958;11.366;2023-05-10T11:23:49;0.40;;;0.40;;
17947;SDS011;9099;47.958;11.366;2023-05-10T11:26:21;0.50;;;0.25;;
17947;SDS011;9099;47.958;11.366;2023-05-10T11:28:50;2.58;;;0.40;;
17947;SDS011;9099;47.958;11.366;2023-05-10T11:31:18;0.38;;;0.32;;
17947;SDS011;9099;47.958;11.366;2023-05-10T11:33:46;0.38;;;0.38;;
17947;SDS011;9099;47.958;11.366;2023-05-10T11:36:16;1.25;;;0.55;;
17947;SDS011;9099;47.958;11.366;2023-05-10T11:38:45;0.68;;;0.60;;
17947;SDS011;9099;47.958;11.366;2023-05-10T11:41:13;0.65;;;0.50;;
17947;SDS011;9099;47.958;11.366;2023-05-10T11:43:41;0.65;;;0.65;;
17947;SDS011;9099;47.958;11.366;2023-05-10T11:46:10;0.60;;;0.60;;
17947;SDS011;9099;47.958;11.366;2023-05-10T11:48:38;1.10;;;0.90;;
17947;SDS011;9099;47.958;11.366;2023-05-10T11:51:06;0.90;;;0.90;;
17947;SDS011;9099;47.958;11.366;2023-05-10T11:53:34;0.98;;;0.98;;
17947;SDS011;9099;47.958;11.366;2023-05-10T11:56:05;1.17;;;0.70;;
17947;SDS011;9099;47.958;11.366;2023-05-10T11:58:32;1.42;;;1.30;;
17947;SDS011;9099;47.958;11.366;2023-05-10T12:01:00;1.27;;;1.00;;
17947;SDS011;9099;47.958;11.366;2023-05-10T12:03:27;1.48;;;1.30;;
17947;SDS011;9099;47.958;11.366;2023-05-10T12:05:55;1.17;;;1.02;;
17947;SDS011;9099;47.958;11.366;2023-05-10T12:08:24;2.28;;;1.10;;
17947;SDS011;9099;47.958;11.366;2023-05-10T12:10:53;1.25;;;1.00;;
17947;SDS011;9099;47.958;11.366;2023-05-10T12:13:30;1.00;;;0.80;;
17947;SDS011;9099;47.958;11.366;2023-05-10T12:15:57;0.70;;;0.70;;
17947;SDS011;9099;47.958;11.366;2023-05-10T12:18:24;0.77;;;0.70;;
17947;SDS011;9099;47.958;11.366;2023-05-10T12:20:51;0.82;;;0.82;;
17947;SDS011;9099;47.958;11.366;2023-05-10T12:23:20;0.88;;;0.88;;
17947;SDS011;9099;47.958;11.366;2023-05-10T12:25:47;1.02;;;1.02;;
17947;SDS011;9099;47.958;11.366;2023-05-10T12:28:15;0.85;;;0.85;;
17947;SDS011;9099;47.958;11.366;2023-05-10T12:30:45;0.80;;;0.80;;
17947;SDS011;9099;47.958;11.366;2023-05-10T12:36:34;1.20;;;1.10;;
17947;SDS011;9099;47.958;11.366;2023-05-10T12:39:04;1.10;;;1.00;;
17947;SDS011;9099;47.958;11.366;2023-05-10T12:41:31;0.77;;;0.77;;
17947;SDS011;9099;47.958;11.366;2023-05-10T12:44:00;0.80;;;0.80;;
17947;SDS011;9099;47.958;11.366;2023-05-10T12:46:26;0.77;;;0.77;;
17947;SDS011;9099;47.958;11.366;2023-05-10T12:48:54;0.85;;;0.70;;
17947;SDS011;9099;47.958;11.366;2023-05-10T12:51:20;8.50;;;1.00;;
17947;SDS011;9099;47.958;11.366;2023-05-10T12:53:47;1.58;;;0.60;;
17947;SDS011;9099;47.958;11.366;2023-05-10T12:56:14;0.52;;;0.52;;
17947;SDS011;9099;47.958;11.366;2023-05-10T12:58:41;0.80;;;0.80;;
17947;SDS011;9099;47.958;11.366;2023-05-10T13:01:14;0.50;;;0.50;;
17947;SDS011;9099;47.958;11.366;2023-05-10T13:03:41;0.88;;;0.80;;
17947;SDS011;9099;47.958;11.366;2023-05-10T13:06:08;0.80;;;0.80;;
17947;SDS011;9099;47.958;11.366;2023-05-10T13:08:35;0.60;;;0.60;;
17947;SDS011;9099;47.958;11.366;2023-05-10T13:11:02;0.60;;;0.60;;
17947;SDS011;9099;47.958;11.366;2023-05-10T13:13:29;0.98;;;0.75;;
17947;SDS011;9099;47.958;11.366;2023-05-10T13:15:56;0.40;;;0.40;;
17947;SDS011;9099;47.958;11.366;2023-05-10T13:18:24;0.65;;;0.65;;
17947;SDS011;9099;47.958;11.366;2023-05-10T13:20:53;1.27;;;1.00;;
17947;SDS011;9099;47.958;11.366;2023-05-10T13:23:20;0.75;;;0.70;;
17947;SDS011;9099;47.958;11.366;2023-05-10T13:25:47;1.65;;;0.60;;
17947;SDS011;9099;47.958;11.366;2023-05-10T13:28:14;0.73;;;0.40;;
17947;SDS011;9099;47.958;11.366;2023-05-10T13:30:41;0.88;;;0.60;;
17947;SDS011;9099;47.958;11.366;2023-05-10T13:33:08;1.65;;;0.47;;
17947;SDS011;9099;47.958;11.366;2023-05-10T13:35:36;2.10;;;0.60;;
17947;SDS011;9099;47.958;11.366;2023-05-10T13:38:03;1.25;;;0.65;;
17947;SDS011;9099;47.958;11.366;2023-05-10T13:40:32;2.00;;;0.70;;
17947;SDS011;9099;47.958;11.366;2023-05-10T13:43:00;2.35;;;0.60;;
17947;SDS011;9099;47.958;11.366;2023-05-10T13:45:27;0.47;;;0.47;;
17947;SDS011;9099;47.958;11.366;2023-05-10T13:47:54;0.85;;;0.40;;
17947;SDS011;9099;47.958;11.366;2023-05-10T13:50:21;1.05;;;0.32;;
17947;SDS011;9099;47.958;11.366;2023-05-10T13:52:49;0.70;;;0.40;;
17947;SDS011;9099;47.958;11.366;2023-05-10T13:55:16;2.92;;;0.50;;
17947;SDS011;9099;47.958;11.366;2023-05-10T13:57:43;0.47;;;0.47;;
17947;SDS011;9099;47.958;11.366;2023-05-10T14:00:10;0.75;;;0.60;;
17947;SDS011;9099;47.958;11.366;2023-05-10T14:02:37;1.10;;;0.50;;
17947;SDS011;9099;47.958;11.366;2023-05-10T14:05:04;1.08;;;0.70;;
17947;SDS011;9099;47.958;11.366;2023-05-10T14:07:31;0.40;;;0.40;;
17947;SDS011;9099;47.958;11.366;2023-05-10T14:10:00;0.45;;;0.30;;
17947;SDS011;9099;47.958;11.366;2023-05-10T14:12:26;1.40;;;0.40;;
17947;SDS011;9099;47.958;11.366;2023-05-10T14:14:54;1.00;;;0.30;;
17947;SDS011;9099;47.958;11.366;2023-05-10T14:17:20;1.55;;;0.30;;
17947;SDS011;9099;47.958;11.366;2023-05-10T14:19:48;0.82;;;0.73;;
17947;SDS011;9099;47.958;11.366;2023-05-10T14:22:14;0.82;;;0.50;;
17947;SDS011;9099;47.958;11.366;2023-05-10T14:24:41;0.52;;;0.52;;
17947;SDS011;9099;47.958;11.366;2023-05-10T14:27:13;0.38;;;0.30;;
17947;SDS011;9099;47.958;11.366;2023-05-10T14:29:40;0.55;;;0.55;;
17947;SDS011;9099;47.958;11.366;2023-05-10T14:32:07;1.27;;;0.50;;
17947;SDS011;9099;47.958;11.366;2023-05-10T14:34:34;0.50;;;0.50;;
17947;SDS011;9099;47.958;11.366;2023-05-10T14:37:00;4.00;;;0.60;;
17947;SDS011;9099;47.958;11.366;2023-05-10T14:39:27;1.10;;;0.85;;
17947;SDS011;9099;47.958;11.366;2023-05-10T14:41:54;0.98;;;0.98;;
17947;SDS011;9099;47.958;11.366;2023-05-10T14:44:22;0.65;;;0.65;;
17947;SDS011;9099;47.958;11.366;2023-05-10T14:46:50;0.70;;;0.70;;
17947;SDS011;9099;47.958;11.366;2023-05-10T14:49:17;0.60;;;0.60;;
17947;SDS011;9099;47.958;11.366;2023-05-10T14:51:43;0.63;;;0.60;;
17947;SDS011;9099;47.958;11.366;2023-05-10T14:54:10;0.50;;;0.50;;
17947;SDS011;9099;47.958;11.366;2023-05-10T14:56:37;0.60;;;0.50;;
17947;SDS011;9099;47.958;11.366;2023-05-10T14:59:06;0.65;;;0.65;;
17947;SDS011;9099;47.958;11.366;2023-05-10T15:01:34;1.13;;;0.50;;
17947;SDS011;9099;47.958;11.366;2023-05-10T15:04:02;0.77;;;0.77;;
17947;SDS011;9099;47.958;11.366;2023-05-10T15:06:32;0.80;;;0.80;;
17947;SDS011;9099;47.958;11.366;2023-05-10T15:09:00;0.77;;;0.60;;